Time;durP1;ratioP1;P1;durP2;ratioP2;P2;SDS_P1;SDS_P2;PMS_P1;PMS_P2;Temp;Humidity;BMP_temperature;BMP_pressure;BME280_temperature;BME280_humidity;BME280_pressure;Samples;Min_cycle;Max_cycle;Signal;HPM_P1;HPM_P2
2023/10/01 00:00:43;;;;;;;7.00;3.50;;;11.30;95.20;;;;;;6111338;23;20451;-70
2023/10/01 00:03:10;;;;;;;9.57;2.90;;;11.40;95.00;;;;;;6109371;23;20906;-69
2023/10/01 00:05:39;;;;;;;4.40;2.67;;;11.40;94.90;;;;;;6128372;23;20464;-69
2023/10/01 00:08:08;;;;;;;6.43;2.63;;;11.30;94.80;;;;;;6130340;23;21495;-70
2023/10/01 00:10:36;;;;;;;9.43;3.53;;;11.30;94.60;;;;;;6127649;23;20446;-69
2023/10/01 00:13:04;;;;;;;8.80;4.23;;;11.30;94.70;;;;;;6070346;23;20438;-70
2023/10/01 00:15:31;;;;;;;14.23;4.47;;;11.20;94.70;;;;;;6074548;23;20454;-69
2023/10/01 00:17:57;;;;;;;4.80;2.67;;;11.20;94.70;;;;;;6096112;23;20722;-68
2023/10/01 00:20:26;;;;;;;11.10;4.20;;;11.20;94.60;;;;;;6121490;23;20438;-69
2023/10/01 00:22:56;;;;;;;9.77;3.40;;;11.20;94.80;;;;;;6129549;23;20442;-67
2023/10/01 00:25:24;;;;;;;6.90;2.90;;;11.10;94.60;;;;;;6128531;23;20472;-68
2023/10/01 00:27:52;;;;;;;5.40;2.40;;;11.10;94.70;;;;;;6077204;23;20644;-70
2023/10/01 00:30:19;;;;;;;8.73;3.10;;;11.00;94.90;;;;;;6127420;23;20449;-67
2023/10/01 00:32:47;;;;;;;5.67;2.60;;;10.90;94.90;;;;;;6108857;23;20449;-69
2023/10/01 00:35:14;;;;;;;3.87;3.03;;;10.80;95.00;;;;;;6064724;23;20450;-68
2023/10/01 00:37:41;;;;;;;8.43;3.70;;;10.70;95.30;;;;;;6112140;23;20453;-69
2023/10/01 00:40:10;;;;;;;3.80;2.33;;;10.60;95.70;;;;;;6072130;23;20444;-70
2023/10/01 00:42:38;;;;;;;8.43;2.70;;;10.50;95.40;;;;;;6113697;23;20452;-68
2023/10/01 00:45:11;;;;;;;5.70;3.60;;;10.40;95.50;;;;;;6112412;23;20458;-68
2023/10/01 00:47:40;;;;;;;3.70;2.40;;;10.40;95.70;;;;;;6112941;23;21350;-69
2023/10/01 00:50:08;;;;;;;14.00;3.40;;;10.40;95.50;;;;;;6104198;23;20446;-68
2023/10/01 00:52:37;;;;;;;10.33;3.37;;;10.40;95.60;;;;;;6069653;23;20503;-68
2023/10/01 00:55:05;;;;;;;5.10;3.40;;;10.50;95.60;;;;;;6109998;23;20447;-67
2023/10/01 00:57:31;;;;;;;9.53;2.83;;;10.60;95.40;;;;;;6128148;23;20454;-67
2023/10/01 00:59:58;;;;;;;10.50;3.90;;;10.60;95.10;;;;;;6077254;23;20444;-69
2023/10/01 01:02:30;;;;;;;5.53;3.03;;;10.70;95.20;;;;;;6082479;23;20447;-68
2023/10/01 01:07:47;;;;;;;7.93;2.93;;;10.70;95.00;;;;;;6103673;23;20444;-68
2023/10/01 01:10:16;;;;;;;7.20;3.80;;;10.70;95.00;;;;;;6097410;23;21800;-68
2023/10/01 01:12:45;;;;;;;15.70;3.33;;;10.70;94.80;;;;;;6137393;23;21172;-68
2023/10/01 01:15:12;;;;;;;9.70;4.60;;;10.70;94.80;;;;;;6131211;23;20447;-69
2023/10/01 01:17:41;;;;;;;13.60;3.20;;;10.70;94.80;;;;;;6115731;23;20941;-69
2023/10/01 01:20:13;;;;;;;10.13;3.70;;;10.70;94.80;;;;;;6096697;23;20469;-68
2023/10/01 01:22:48;;;;;;;6.43;2.80;;;10.50;95.10;;;;;;6091956;23;20455;-68
2023/10/01 01:25:20;;;;;;;5.57;3.30;;;10.40;95.20;;;;;;6133188;23;20984;-69
2023/10/01 01:27:47;;;;;;;5.43;3.43;;;10.30;95.00;;;;;;6110090;23;20457;-69
2023/10/01 01:30:18;;;;;;;6.30;3.07;;;10.30;95.00;;;;;;6108680;23;20644;-68
2023/10/01 01:32:45;;;;;;;16.67;2.90;;;10.20;95.30;;;;;;6134575;23;20568;-68
2023/10/01 01:35:12;;;;;;;6.17;2.90;;;10.20;95.30;;;;;;6129599;23;20453;-70
2023/10/01 01:37:46;;;;;;;8.43;3.53;;;10.10;95.80;;;;;;6091231;23;20451;-69
2023/10/01 01:40:24;;;;;;;16.03;3.57;;;10.10;96.30;;;;;;6119460;23;20829;-69
2023/10/01 01:42:52;;;;;;;5.90;2.70;;;10.10;96.20;;;;;;6135097;23;20446;-68
2023/10/01 01:45:20;;;;;;;13.20;4.97;;;10.20;96.00;;;;;;6099288;23;20878;-69
2023/10/01 01:47:47;;;;;;;8.20;3.27;;;10.20;95.80;;;;;;6089635;23;20443;-69
2023/10/01 01:50:19;;;;;;;5.90;3.30;;;10.20;95.60;;;;;;6110768;23;20445;-69
2023/10/01 01:52:49;;;;;;;9.73;3.13;;;10.10;95.50;;;;;;6100129;23;20518;-69
2023/10/01 01:55:27;;;;;;;6.13;2.20;;;10.00;95.60;;;;;;6124911;23;20567;-70
2023/10/01 01:58:06;;;;;;;4.83;2.80;;;9.90;96.20;;;;;;6084514;23;21055;-67
2023/10/01 02:00:37;;;;;;;8.93;2.77;;;9.70;96.30;;;;;;6114313;23;20541;-67
2023/10/01 02:03:11;;;;;;;9.47;3.27;;;9.70;96.50;;;;;;6078667;23;20448;-67
2023/10/01 02:05:41;;;;;;;17.50;3.80;;;;;;;;;;6129631;23;20453;-67
2023/10/01 02:08:11;;;;;;;5.50;3.27;;;9.70;96.80;;;;;;6137549;23;20438;-67
2023/10/01 02:10:45;;;;;;;4.97;2.90;;;9.80;96.50;;;;;;6096487;23;20446;-66
2023/10/01 02:13:16;;;;;;;11.63;2.30;;;9.80;96.40;;;;;;6093767;23;20434;-67
2023/10/01 02:15:45;;;;;;;13.33;3.17;;;9.90;96.40;;;;;;6130233;23;20446;-67
2023/10/01 02:18:16;;;;;;;4.30;2.60;;;10.00;95.80;;;;;;6137954;23;20434;-67
2023/10/01 02:20:44;;;;;;;4.10;2.40;;;10.00;95.50;;;;;;6134647;23;20454;-67
2023/10/01 02:23:13;;;;;;;3.10;2.30;;;10.10;95.40;;;;;;6094386;23;20447;-67
2023/10/01 02:25:45;;;;;;;11.40;3.80;;;10.00;95.30;;;;;;6097699;23;20514;-67
2023/10/01 02:28:15;;;;;;;5.77;3.10;;;10.00;95.40;;;;;;6126695;23;20442;-67
2023/10/01 02:30:44;;;;;;;5.47;2.70;;;10.00;95.30;;;;;;6096028;23;20455;-67
2023/10/01 02:33:18;;;;;;;26.30;3.73;;;10.10;95.20;;;;;;6126599;23;20831;-67
2023/10/01 02:35:48;;;;;;;7.43;2.93;;;10.10;95.40;;;;;;6097719;23;20482;-67
2023/10/01 02:41:02;;;;;;;6.57;3.60;;;10.10;95.30;;;;;;6098394;23;20768;-66
2023/10/01 02:43:33;;;;;;;4.17;2.50;;;10.10;95.30;;;;;;6078288;23;20553;-67
2023/10/01 02:46:04;;;;;;;9.20;3.30;;;10.10;95.30;;;;;;6126312;23;20442;-67
2023/10/01 02:48:30;;;;;;;11.47;3.33;;;10.10;95.30;;;;;;6126172;23;20477;-66
2023/10/01 02:51:14;;;;;;;5.03;2.60;;;10.10;95.20;;;;;;6128166;23;20877;-67
2023/10/01 02:53:42;;;;;;;19.00;3.87;;;10.10;95.10;;;;;;6119628;23;20218;-67
2023/10/01 02:56:12;;;;;;;11.97;2.80;;;10.10;95.00;;;;;;6128360;23;20437;-67
2023/10/01 02:58:44;;;;;;;15.63;4.40;;;10.00;94.90;;;;;;6097825;23;20446;-67
2023/10/01 03:01:13;;;;;;;12.53;3.63;;;;;;;;;;6095402;23;20532;-67
2023/10/01 03:03:39;;;;;;;12.07;3.63;;;10.00;94.70;;;;;;6098878;23;20777;-67
2023/10/01 03:06:09;;;;;;;10.83;3.33;;;10.00;94.70;;;;;;6135727;23;20989;-70
2023/10/01 03:11:25;;;;;;;4.60;2.83;;;;;;;;;;6134755;23;20445;-69
2023/10/01 03:13:54;;;;;;;7.37;3.43;;;9.80;95.50;;;;;;6136975;23;20442;-69
2023/10/01 03:19:17;;;;;;;3.63;2.50;;;9.50;96.20;;;;;;6137304;23;21363;-70
2023/10/01 03:24:29;;;;;;;9.73;2.97;;;9.40;96.30;;;;;;6136244;23;20808;-68
2023/10/01 03:27:02;;;;;;;4.80;2.63;;;9.40;96.30;;;;;;6107521;23;20936;-69
2023/10/01 03:29:35;;;;;;;5.80;2.33;;;9.40;96.20;;;;;;6130221;23;20973;-68
2023/10/01 03:32:27;;;;;;;6.63;3.13;;;9.20;96.50;;;;;;6139457;23;20510;-70
2023/10/01 03:34:52;;;;;;;4.10;3.00;;;9.20;96.80;;;;;;6139660;23;20844;-68
2023/10/01 03:37:22;;;;;;;5.00;3.13;;;9.20;96.60;;;;;;6138539;23;20500;-69
2023/10/01 03:39:51;;;;;;;5.90;2.70;;;9.20;96.60;;;;;;6138414;23;20442;-70
2023/10/01 03:42:21;;;;;;;12.20;3.23;;;9.10;96.60;;;;;;6118316;23;20984;-69
2023/10/01 03:45:19;;;;;;;9.17;3.43;;;9.00;97.40;;;;;;6120813;23;20446;-68
2023/10/01 03:47:50;;;;;;;6.53;3.50;;;9.00;97.70;;;;;;6101035;23;20922;-69
2023/10/01 03:50:20;;;;;;;33.67;4.13;;;9.10;97.40;;;;;;6139828;23;20970;-70
2023/10/01 03:52:53;;;;;;;5.43;2.93;;;9.20;97.20;;;;;;6099372;23;20457;-70
2023/10/01 03:55:28;;;;;;;6.93;3.83;;;9.30;96.90;;;;;;6137176;23;20452;-69
2023/10/01 03:58:06;;;;;;;9.10;3.57;;;9.30;97.10;;;;;;6138494;23;20450;-67
2023/10/01 04:00:41;;;;;;;7.60;4.03;;;9.30;97.00;;;;;;6134060;23;20500;-69
2023/10/01 04:03:08;;;;;;;12.33;3.10;;;;;;;;;;6132914;23;22598;-69
2023/10/01 04:05:37;;;;;;;4.87;3.13;;;9.40;96.50;;;;;;6140021;23;20447;-69
2023/10/01 04:08:07;;;;;;;6.63;3.10;;;9.40;96.40;;;;;;6116054;23;20895;-70
2023/10/01 04:10:38;;;;;;;9.20;3.20;;;9.50;96.30;;;;;;6123247;23;20504;-69
2023/10/01 04:13:20;;;;;;;5.97;3.10;;;9.50;96.20;;;;;;6137214;23;20452;-69
2023/10/01 04:15:55;;;;;;;10.47;2.70;;;9.50;96.20;;;;;;6132585;23;20506;-67
2023/10/01 04:18:24;;;;;;;3.73;2.53;;;9.50;96.20;;;;;;6097298;23;20792;-67
2023/10/01 04:23:47;;;;;;;12.27;3.33;;;9.60;96.10;;;;;;6139525;23;20949;-66
2023/10/01 04:26:16;;;;;;;6.50;3.10;;;9.50;96.00;;;;;;6133511;23;20446;-67
2023/10/01 04:28:46;;;;;;;6.97;3.10;;;9.50;96.00;;;;;;6138955;23;20446;-67
2023/10/01 04:31:16;;;;;;;15.73;3.43;;;9.30;96.10;;;;;;6136903;23;20457;-67
2023/10/01 04:33:44;;;;;;;7.57;2.93;;;9.10;96.50;;;;;;6135597;23;20453;-67
2023/10/01 04:36:12;;;;;;;7.50;2.70;;;9.00;96.80;;;;;;6104480;23;20458;-67
2023/10/01 04:38:41;;;;;;;11.63;3.03;;;8.90;96.70;;;;;;6127652;23;20557;-67
2023/10/01 04:41:13;;;;;;;10.10;4.30;;;8.80;97.00;;;;;;6129807;23;20439;-67
2023/10/01 04:43:51;;;;;;;8.50;2.77;;;8.70;97.30;;;;;;6111966;23;20808;-67
2023/10/01 04:46:24;;;;;;;7.23;3.27;;;8.70;97.60;;;;;;6115113;23;21248;-67
2023/10/01 04:48:52;;;;;;;11.73;3.07;;;8.70;97.40;;;;;;6132500;23;20450;-67
2023/10/01 04:51:21;;;;;;;19.23;3.73;;;;;;;;;;6073415;23;20498;-67
2023/10/01 04:53:49;;;;;;;11.37;2.80;;;8.80;97.60;;;;;;6106216;23;20474;-67
2023/10/01 04:56:20;;;;;;;6.40;3.17;;;8.80;97.60;;;;;;6133897;23;20446;-67
2023/10/01 04:58:51;;;;;;;19.43;3.53;;;8.90;97.50;;;;;;6137847;23;20453;-67
2023/10/01 05:01:23;;;;;;;5.53;3.00;;;9.00;97.50;;;;;;6137896;23;20763;-67
2023/10/01 05:03:54;;;;;;;8.20;2.33;;;9.00;97.40;;;;;;6135957;23;20446;-66
2023/10/01 05:06:22;;;;;;;7.87;3.60;;;9.10;97.20;;;;;;6111808;23;20474;-66
2023/10/01 05:08:53;;;;;;;13.00;4.33;;;9.10;97.10;;;;;;6114247;23;20813;-66
2023/10/01 05:11:22;;;;;;;3.57;2.50;;;9.10;97.30;;;;;;6125353;23;20513;-66
2023/10/01 05:13:51;;;;;;;13.23;3.20;;;9.10;97.20;;;;;;6134010;23;20450;-66
2023/10/01 05:16:18;;;;;;;22.87;4.33;;;9.20;97.20;;;;;;6136054;23;20970;-66
2023/10/01 05:18:46;;;;;;;22.23;4.57;;;9.20;97.00;;;;;;6129698;23;20450;-66
2023/10/01 05:21:15;;;;;;;8.97;3.50;;;9.30;97.10;;;;;;6131323;23;20442;-66
2023/10/01 05:23:42;;;;;;;5.40;3.60;;;9.20;97.50;;;;;;6128283;23;20494;-66
2023/10/01 05:26:10;;;;;;;10.80;4.70;;;9.00;98.00;;;;;;6130810;23;20457;-69
2023/10/01 05:28:41;;;;;;;22.67;6.23;;;9.00;98.40;;;;;;6092930;23;21043;-70
2023/10/01 05:31:12;;;;;;;11.90;2.73;;;9.00;98.30;;;;;;6100937;23;20459;-69
2023/10/01 05:33:42;;;;;;;16.00;3.77;;;9.10;98.00;;;;;;6101576;23;20459;-68
2023/10/01 05:36:09;;;;;;;13.53;4.07;;;9.20;97.80;;;;;;6116973;23;20500;-70
2023/10/01 05:38:37;;;;;;;4.37;2.73;;;9.20;97.50;;;;;;6084987;23;21224;-68
2023/10/01 05:41:04;;;;;;;7.17;3.60;;;9.10;97.30;;;;;;6108627;23;20447;-70
2023/10/01 05:43:35;;;;;;;9.83;3.90;;;9.10;97.20;;;;;;6098292;23;20453;-69
2023/10/01 05:46:05;;;;;;;43.83;4.70;;;9.10;97.10;;;;;;6116574;23;21145;-69
2023/10/01 05:48:34;;;;;;;12.00;3.50;;;9.10;97.20;;;;;;6079774;23;20442;-68
2023/10/01 05:51:00;;;;;;;4.40;2.70;;;9.10;97.50;;;;;;6114175;23;20699;-68
2023/10/01 05:53:30;;;;;;;11.67;3.47;;;9.20;97.30;;;;;;6107063;23;21708;-69
2023/10/01 05:56:05;;;;;;;11.07;4.43;;;9.20;97.30;;;;;;6126291;23;21174;-68
2023/10/01 05:58:32;;;;;;;11.80;4.30;;;9.20;97.30;;;;;;6127663;23;20468;-69
2023/10/01 06:01:05;;;;;;;3.87;2.80;;;9.30;97.40;;;;;;6111452;23;20453;-68
2023/10/01 06:03:34;;;;;;;8.73;4.23;;;9.30;97.30;;;;;;6116704;23;20450;-69
2023/10/01 06:06:08;;;;;;;11.33;4.93;;;9.30;97.20;;;;;;6090752;23;20447;-67
2023/10/01 06:08:45;;;;;;;6.80;2.70;;;9.40;97.30;;;;;;6126221;23;20480;-70
2023/10/01 06:11:15;;;;;;;10.37;4.10;;;9.40;97.30;;;;;;6117080;23;20492;-70
2023/10/01 06:13:48;;;;;;;17.03;5.17;;;9.50;97.40;;;;;;6107639;23;20823;-69
2023/10/01 06:16:16;;;;;;;11.73;3.83;;;9.60;97.40;;;;;;6076421;23;20455;-69
2023/10/01 06:18:49;;;;;;;7.83;2.87;;;9.70;97.50;;;;;;6134114;23;20446;-70
2023/10/01 06:21:18;;;;;;;10.90;5.57;;;9.80;97.50;;;;;;6122571;23;21271;-70
2023/10/01 06:23:51;;;;;;;13.50;5.50;;;9.90;97.50;;;;;;6094189;23;20509;-68
2023/10/01 06:26:22;;;;;;;15.63;5.00;;;10.00;97.00;;;;;;6112960;23;20446;-70
2023/10/01 06:28:50;;;;;;;19.53;5.27;;;10.10;97.20;;;;;;6127886;23;20478;-71
2023/10/01 06:31:17;;;;;;;10.70;4.60;;;10.20;97.20;;;;;;6119918;23;20450;-68
2023/10/01 06:33:45;;;;;;;16.07;5.47;;;10.50;97.40;;;;;;6123236;23;20983;-70
2023/10/01 06:36:21;;;;;;;38.97;5.17;;;11.10;98.50;;;;;;6070799;23;20502;-69
2023/10/01 06:38:49;;;;;;;18.57;6.30;;;12.00;99.10;;;;;;6111563;23;20450;-69
2023/10/01 06:41:18;;;;;;;34.03;7.80;;;12.90;97.80;;;;;;6093162;23;20439;-71
2023/10/01 06:43:54;;;;;;;15.47;5.40;;;13.70;96.80;;;;;;6092785;23;21166;-71
2023/10/01 06:46:23;;;;;;;17.97;6.57;;;14.60;95.50;;;;;;6093532;23;21041;-71
2023/10/01 06:48:50;;;;;;;25.20;6.50;;;15.40;94.30;;;;;;6127489;23;20442;-71
2023/10/01 06:51:21;;;;;;;10.40;6.10;;;16.10;93.50;;;;;;6127330;23;20446;-72
2023/10/01 06:53:53;;;;;;;7.97;5.07;;;16.90;92.50;;;;;;6087034;23;20434;-69
2023/10/01 06:56:21;;;;;;;17.07;6.23;;;17.70;91.70;;;;;;6135291;23;20438;-71
2023/10/01 07:01:35;;;;;;;8.87;4.73;;;;;;;;;;6131646;23;20786;-72
2023/10/01 07:04:02;;;;;;;7.10;4.20;;;19.90;88.70;;;;;;6135624;23;20819;-72
2023/10/01 07:06:29;;;;;;;9.10;4.00;;;;;;;;;;6123843;23;20935;-70
2023/10/01 07:08:56;;;;;;;9.03;4.50;;;21.20;86.60;;;;;;6072937;23;20455;-72
2023/10/01 07:11:23;;;;;;;7.20;4.90;;;21.60;85.60;;;;;;6111252;23;20442;-72
2023/10/01 07:13:53;;;;;;;6.90;4.00;;;22.20;85.10;;;;;;6082865;23;20504;-72
2023/10/01 07:16:35;;;;;;;5.80;3.00;;;22.80;83.90;;;;;;6135507;23;20995;-73
2023/10/01 07:19:04;;;;;;;7.50;3.93;;;23.30;83.00;;;;;;6119858;23;20456;-69
2023/10/01 07:21:31;;;;;;;8.60;4.37;;;23.60;81.80;;;;;;6131331;23;20449;-73
2023/10/01 07:24:00;;;;;;;8.70;4.80;;;24.00;81.30;;;;;;6126594;23;20818;-69
2023/10/01 07:26:28;;;;;;;5.70;3.77;;;;;;;;;;6125801;23;20947;-72
2023/10/01 07:28:57;;;;;;;6.33;4.00;;;;;;;;;;6130592;23;20575;-70
2023/10/01 07:31:25;;;;;;;11.23;5.00;;;24.70;80.60;;;;;;6132049;23;20453;-73
2023/10/01 07:33:54;;;;;;;9.97;4.00;;;24.80;80.40;;;;;;6088512;23;20522;-73
2023/10/01 07:36:23;;;;;;;10.20;4.33;;;24.80;79.90;;;;;;6136634;23;20456;-74
2023/10/01 07:38:52;;;;;;;6.67;3.73;;;24.90;80.10;;;;;;6136774;23;20430;-72
2023/10/01 07:41:22;;;;;;;8.47;3.63;;;24.90;80.60;;;;;;6082851;23;20916;-72
2023/10/01 07:43:49;;;;;;;15.13;4.77;;;24.80;81.30;;;;;;6129460;23;20537;-72
2023/10/01 07:46:19;;;;;;;13.40;4.63;;;24.70;81.50;;;;;;6076199;23;20828;-73
2023/10/01 07:48:49;;;;;;;8.17;4.10;;;24.70;82.10;;;;;;6111709;23;20489;-70
2023/10/01 07:51:26;;;;;;;10.23;4.17;;;24.50;82.40;;;;;;6125018;23;20706;-74
2023/10/01 07:53:54;;;;;;;5.47;4.20;;;24.30;82.60;;;;;;6126377;23;20779;-74
2023/10/01 07:56:22;;;;;;;9.70;4.40;;;24.00;83.30;;;;;;6126775;23;20428;-69
2023/10/01 07:58:56;;;;;;;11.17;5.67;;;23.70;83.90;;;;;;6129320;23;20537;-69
2023/10/01 08:01:37;;;;;;;5.90;3.83;;;23.50;85.00;;;;;;6129325;23;20446;-68
2023/10/01 08:04:06;;;;;;;13.00;4.87;;;22.90;83.50;;;;;;6132775;23;20760;-68
2023/10/01 08:06:41;;;;;;;7.60;4.37;;;22.70;84.20;;;;;;6127876;23;20500;-68
2023/10/01 08:09:13;;;;;;;6.40;4.33;;;22.50;85.20;;;;;;6112612;23;21017;-68
2023/10/01 08:11:58;;;;;;;7.43;3.80;;;22.10;87.70;;;;;;6099939;23;20514;-68
2023/10/01 08:14:26;;;;;;;8.83;4.30;;;21.80;86.20;;;;;;6119513;23;20449;-69
2023/10/01 08:16:57;;;;;;;12.37;5.33;;;21.50;90.00;;;;;;6095771;23;20450;-68
2023/10/01 08:19:41;;;;;;;20.90;4.50;;;21.20;89.70;;;;;;6128636;23;20773;-68
2023/10/01 08:22:13;;;;;;;7.00;4.00;;;21.10;90.20;;;;;;6114465;23;20442;-68
2023/10/01 08:24:45;;;;;;;11.33;4.30;;;;;;;;;;6119032;23;20487;-68
2023/10/01 08:27:12;;;;;;;6.40;3.70;;;21.20;90.90;;;;;;6085512;23;20816;-68
2023/10/01 08:32:23;;;;;;;9.73;5.10;;;21.10;90.70;;;;;;6106166;23;20879;-68
2023/10/01 08:35:01;;;;;;;8.57;4.70;;;21.20;91.70;;;;;;6128475;23;20471;-68
2023/10/01 08:37:31;;;;;;;10.17;4.60;;;21.20;90.90;;;;;;6106502;23;20847;-68
2023/10/01 08:39:57;;;;;;;9.40;4.70;;;21.40;91.80;;;;;;6083511;23;20447;-68
2023/10/01 08:42:28;;;;;;;9.50;5.40;;;21.40;91.90;;;;;;6092476;23;20924;-67
2023/10/01 08:45:02;;;;;;;26.77;7.00;;;;;;;;;;6128208;23;20989;-67
2023/10/01 08:47:38;;;;;;;11.30;4.67;;;21.10;91.50;;;;;;6097326;23;20760;-67
2023/10/01 08:50:19;;;;;;;9.30;4.70;;;21.20;92.20;;;;;;6116088;23;20443;-68
2023/10/01 08:52:55;;;;;;;18.73;5.40;;;20.90;91.90;;;;;;6134164;23;20453;-67
2023/10/01 08:55:24;;;;;;;11.90;4.70;;;20.90;92.50;;;;;;6107974;23;20508;-68
2023/10/01 08:57:53;;;;;;;6.53;5.00;;;20.90;92.50;;;;;;6106574;23;20484;-68
2023/10/01 09:00:20;;;;;;;12.53;4.90;;;21.10;93.00;;;;;;6117277;23;20703;-67
2023/10/01 09:02:53;;;;;;;17.33;6.13;;;21.30;93.90;;;;;;6090789;23;20417;-68
2023/10/01 09:05:27;;;;;;;9.97;5.00;;;21.60;94.00;;;;;;6103727;23;20442;-67
2023/10/01 09:10:49;;;;;;;13.47;5.23;;;21.80;92.00;;;;;;6118977;23;20453;-67
2023/10/01 09:13:21;;;;;;;26.93;6.80;;;21.90;93.00;;;;;;6114537;23;20446;-68
2023/10/01 09:15:53;;;;;;;20.67;5.20;;;22.10;94.20;;;;;;6109014;23;20452;-67
2023/10/01 09:18:23;;;;;;;11.83;4.73;;;22.30;93.60;;;;;;6119321;23;20450;-68
2023/10/01 09:21:06;;;;;;;16.80;5.47;;;22.90;93.50;;;;;;6099542;23;20433;-68
2023/10/01 09:23:55;;;;;;;8.20;4.63;;;23.00;92.40;;;;;;6098005;23;20439;-68
2023/10/01 09:26:42;;;;;;;18.17;5.00;;;23.50;91.70;;;;;;6118511;23;20553;-67
2023/10/01 09:29:21;;;;;;;13.13;5.73;;;23.60;91.80;;;;;;6137598;23;20481;-67
2023/10/01 09:31:56;;;;;;;12.90;5.50;;;23.70;91.10;;;;;;6088809;23;20442;-68
2023/10/01 09:34:33;;;;;;;10.07;5.93;;;23.70;90.10;;;;;;6123272;23;20796;-67
2023/10/01 09:37:04;;;;;;;14.70;5.40;;;23.50;90.40;;;;;;6137835;23;20438;-67
2023/10/01 09:39:41;;;;;;;8.80;5.80;;;23.20;90.50;;;;;;6090205;23;20448;-68
2023/10/01 09:42:22;;;;;;;23.80;6.23;;;23.00;91.20;;;;;;6075393;23;20478;-68
2023/10/01 09:44:52;;;;;;;14.40;6.07;;;22.90;90.80;;;;;;6079850;23;20438;-68
2023/10/01 09:47:23;;;;;;;21.53;6.17;;;22.60;90.90;;;;;;6138496;23;20466;-67
2023/10/01 09:49:53;;;;;;;7.53;4.63;;;22.80;92.40;;;;;;6068350;23;20443;-68
2023/10/01 09:52:31;;;;;;;9.40;5.10;;;22.80;91.10;;;;;;6092086;23;20990;-68
2023/10/01 09:55:05;;;;;;;13.30;6.70;;;22.60;91.30;;;;;;6112029;23;20828;-68
2023/10/01 09:57:37;;;;;;;13.47;5.10;;;22.60;91.70;;;;;;6105577;23;20509;-68
2023/10/01 10:00:18;;;;;;;12.77;5.73;;;22.70;91.70;;;;;;6124322;23;20505;-70
2023/10/01 10:02:53;;;;;;;24.77;5.03;;;22.50;92.40;;;;;;6121378;23;20454;-68
2023/10/01 10:05:28;;;;;;;13.73;4.60;;;22.60;92.10;;;;;;6137982;23;20533;-68
2023/10/01 10:07:56;;;;;;;20.87;6.20;;;22.50;90.80;;;;;;6128007;23;20560;-68
2023/10/01 10:10:26;;;;;;;15.40;5.93;;;22.60;92.40;;;;;;6115013;23;20472;-68
2023/10/01 10:12:59;;;;;;;10.97;4.63;;;22.50;91.30;;;;;;6137863;23;20442;-68
2023/10/01 10:15:56;;;;;;;28.07;7.10;;;22.90;91.70;;;;;;6131690;23;20449;-67
2023/10/01 10:18:23;;;;;;;9.47;5.00;;;23.00;90.80;;;;;;6088016;23;20434;-68
2023/10/01 10:21:03;;;;;;;9.80;4.57;;;23.10;91.40;;;;;;6124724;23;21059;-68
2023/10/01 10:23:30;;;;;;;18.17;6.07;;;23.50;92.00;;;;;;6125439;23;20442;-68
2023/10/01 10:26:13;;;;;;;29.57;6.67;;;23.60;90.80;;;;;;6125997;23;20973;-70
2023/10/01 10:28:55;;;;;;;22.53;6.80;;;23.80;90.90;;;;;;6116446;23;20774;-72
2023/10/01 10:31:33;;;;;;;19.43;5.77;;;23.90;89.40;;;;;;6112187;23;20434;-73
2023/10/01 10:34:21;;;;;;;17.63;5.30;;;24.00;90.00;;;;;;6136750;23;20522;-72
2023/10/01 10:36:54;;;;;;;12.20;5.60;;;24.10;85.80;;;;;;6133336;23;20416;-72
2023/10/01 10:39:40;;;;;;;12.90;5.30;;;;;;;;;;6132859;23;20434;-72
2023/10/01 10:42:28;;;;;;;38.07;6.50;;;24.10;87.50;;;;;;6133884;23;20801;-69
2023/10/01 10:45:23;;;;;;;9.87;4.33;;;24.20;88.60;;;;;;6094043;23;20439;-72
2023/10/01 10:47:59;;;;;;;10.33;4.53;;;24.50;90.70;;;;;;6098312;23;20941;-71
2023/10/01 10:50:48;;;;;;;12.30;5.30;;;24.70;90.40;;;;;;6133769;23;20445;-74
2023/10/01 10:53:20;;;;;;;10.53;6.03;;;24.60;86.90;;;;;;6093164;23;20463;-74
2023/10/01 10:55:54;;;;;;;42.90;7.33;;;24.40;85.90;;;;;;6091880;23;20439;-75
2023/10/01 10:58:24;;;;;;;10.50;5.40;;;24.60;87.60;;;;;;6117990;23;20826;-70
2023/10/01 11:00:52;;;;;;;14.13;5.20;;;24.60;87.20;;;;;;6128498;23;20413;-72
2023/10/01 11:03:40;;;;;;;19.77;5.67;;;25.10;88.60;;;;;;6135738;23;20825;-70
2023/10/01 11:06:17;;;;;;;9.57;4.60;;;25.30;87.90;;;;;;6039401;23;20422;-70
2023/10/01 11:08:51;;;;;;;12.30;5.10;;;25.50;86.00;;;;;;6121401;23;20413;-70
2023/10/01 11:11:22;;;;;;;17.73;5.50;;;;;;;;;;6043715;23;20502;-71
2023/10/01 11:13:59;;;;;;;15.40;5.67;;;25.70;85.80;;;;;;6101097;23;20443;-71
2023/10/01 11:16:33;;;;;;;23.97;5.93;;;26.10;88.80;;;;;;6086764;23;20472;-71
2023/10/01 11:19:12;;;;;;;11.17;5.20;;;26.00;83.70;;;;;;6112278;23;20446;-71
2023/10/01 11:21:44;;;;;;;12.13;6.03;;;25.70;82.80;;;;;;6111547;23;20775;-73
2023/10/01 11:24:13;;;;;;;23.70;6.53;;;25.60;85.00;;;;;;6116666;23;20501;-70
2023/10/01 11:27:14;;;;;;;12.27;5.57;;;25.60;84.70;;;;;;6126589;23;21008;-68
2023/10/01 11:29:42;;;;;;;8.70;4.23;;;25.50;84.40;;;;;;6128616;23;20442;-68
2023/10/01 11:32:16;;;;;;;15.60;6.50;;;25.40;84.80;;;;;;6114329;23;20416;-68
2023/10/01 11:34:45;;;;;;;13.20;6.13;;;;;;;;;;6133937;23;20782;-68
2023/10/01 11:37:16;;;;;;;27.50;6.40;;;25.80;88.30;;;;;;6128002;23;20424;-68
2023/10/01 11:39:50;;;;;;;12.07;5.00;;;26.20;87.80;;;;;;6108055;23;20486;-68
2023/10/01 11:42:35;;;;;;;7.47;4.60;;;26.70;87.30;;;;;;6119250;23;20607;-69
2023/10/01 11:45:28;;;;;;;9.20;5.20;;;27.20;86.80;;;;;;6085373;23;20495;-68
2023/10/01 11:48:19;;;;;;;15.50;6.20;;;27.70;83.80;;;;;;6093140;23;20447;-69
2023/10/01 11:50:50;;;;;;;32.07;6.77;;;28.10;82.40;;;;;;6095960;23;20429;-69
2023/10/01 11:53:28;;;;;;;14.43;5.87;;;28.20;80.80;;;;;;6093114;23;20753;-69
2023/10/01 11:56:01;;;;;;;19.87;7.33;;;27.50;78.10;;;;;;6107185;23;20454;-69
2023/10/01 11:58:28;;;;;;;22.17;5.80;;;27.00;82.20;;;;;;6088140;23;21341;-69
2023/10/01 12:00:59;;;;;;;18.27;5.27;;;27.00;80.10;;;;;;6114806;23;20436;-69
2023/10/01 12:03:26;;;;;;;13.93;6.50;;;26.90;79.90;;;;;;6114002;23;20930;-69
2023/10/01 12:05:56;;;;;;;31.23;6.20;;;;;;;;;;6113481;23;20439;-74
2023/10/01 12:08:35;;;;;;;10.30;5.27;;;26.90;80.60;;;;;;6132295;23;20912;-69
2023/10/01 12:11:26;;;;;;;15.23;5.50;;;26.50;81.10;;;;;;6105894;23;20437;-70
2023/10/01 12:14:05;;;;;;;13.70;5.97;;;26.50;80.30;;;;;;6138297;23;20522;-69
2023/10/01 12:16:32;;;;;;;11.50;5.63;;;26.40;80.40;;;;;;6108422;23;20482;-69
2023/10/01 12:19:22;;;;;;;22.40;6.53;;;26.40;80.50;;;;;;6093439;23;20443;-69
2023/10/01 12:21:48;;;;;;;8.57;4.77;;;26.70;83.80;;;;;;6073219;23;20504;-69
2023/10/01 12:24:15;;;;;;;10.93;5.03;;;27.20;85.00;;;;;;6123589;23;20533;-69
2023/10/01 12:26:47;;;;;;;16.00;5.27;;;27.50;81.60;;;;;;6130586;23;20693;-71
2023/10/01 12:29:14;;;;;;;12.10;4.80;;;27.70;80.40;;;;;;6116251;23;20525;-71
2023/10/01 12:31:44;;;;;;;15.57;5.53;;;28.20;80.90;;;;;;6101648;23;20525;-71
2023/10/01 12:34:11;;;;;;;27.77;6.17;;;28.30;82.30;;;;;;6130702;23;20506;-72
2023/10/01 12:36:44;;;;;;;12.20;6.80;;;28.60;78.40;;;;;;6096904;23;20426;-69
2023/10/01 12:39:27;;;;;;;21.27;6.37;;;28.50;77.60;;;;;;6111436;23;20902;-69
2023/10/01 12:41:57;;;;;;;17.80;6.43;;;28.20;77.90;;;;;;6076371;23;20492;-69
2023/10/01 12:44:28;;;;;;;17.60;7.60;;;28.00;78.30;;;;;;6122760;23;20439;-69
2023/10/01 12:46:54;;;;;;;19.80;6.60;;;28.10;77.20;;;;;;6075193;23;20442;-72
2023/10/01 12:49:25;;;;;;;12.13;6.57;;;27.60;74.40;;;;;;6118803;23;20419;-72
2023/10/01 12:51:53;;;;;;;13.63;6.53;;;27.50;74.00;;;;;;6106559;23;20446;-72
2023/10/01 12:54:24;;;;;;;13.97;7.00;;;27.60;75.40;;;;;;6137926;23;20460;-70
2023/10/01 12:57:02;;;;;;;16.90;6.33;;;27.60;75.80;;;;;;6126012;23;20797;-72
2023/10/01 12:59:38;;;;;;;20.97;6.03;;;27.60;76.00;;;;;;6138964;23;20420;-71
2023/10/01 13:02:04;;;;;;;12.10;6.17;;;27.70;74.80;;;;;;6135682;23;20964;-71
2023/10/01 13:04:32;;;;;;;19.87;6.40;;;27.70;75.80;;;;;;6097136;23;20469;-72
2023/10/01 13:07:03;;;;;;;17.80;7.50;;;27.90;75.20;;;;;;6134990;23;20533;-73
2023/10/01 13:12:16;;;;;;;12.13;5.90;;;27.80;76.00;;;;;;6130668;23;20504;-71
2023/10/01 13:14:44;;;;;;;37.70;7.30;;;28.00;76.00;;;;;;6137022;23;20489;-71
2023/10/01 13:17:19;;;;;;;32.00;9.20;;;27.90;73.40;;;;;;6129526;23;20417;-72
2023/10/01 13:19:48;;;;;;;11.20;5.80;;;27.90;75.20;;;;;;6067983;23;20830;-73
2023/10/01 13:22:18;;;;;;;13.70;7.10;;;28.20;75.30;;;;;;6104142;23;20450;-71
2023/10/01 13:24:53;;;;;;;20.63;7.33;;;28.40;78.40;;;;;;6118450;23;20642;-71
2023/10/01 13:27:21;;;;;;;30.63;7.20;;;28.30;73.80;;;;;;6102312;23;21114;-72
2023/10/01 13:29:49;;;;;;;14.77;7.80;;;28.50;76.20;;;;;;6136591;23;20492;-71
2023/10/01 13:32:32;;;;;;;13.83;6.50;;;28.30;75.80;;;;;;6080461;23;20954;-71
2023/10/01 13:35:30;;;;;;;20.67;6.80;;;28.60;76.50;;;;;;6136055;23;20788;-70
2023/10/01 13:37:48;;;;;;;17.20;7.00;;;28.50;73.80;;;;;;6079676;23;20467;-72
2023/10/01 13:40:19;;;;;;;20.17;6.50;;;28.50;75.20;;;;;;6127640;23;20921;-71